Van Vleet, Mississippi
Current Conditions -  °F | °C
As of 10:53 AM on Friday 24 Oct 2014 (Local Time) from KTUP Reporting Station
Clear Clear  
Wind Chill: 63°   Ceiling: Unl
Heat Index: 63°   Visibility: 10mi
Dew Point: 47°   Wind: 3mph
Humidity: 56%   Direction: NA
Pressure: 30.14"   Gusts: NA
Location:  33.99°N, 88.9°W
Report Text: KTUP 241553Z VRB03KT 10SM CLR 17/08 A3014 RMK AO2 SLP203 T01720083
Loading
Personal Weather Stations






























Interactive Weather Map
Tropical Storm Tracking
New forecast layout! Learn more

10-Day Weather Forecast

Advertisements
Track Severe Weather on mobile